sensor_id;sensor_type;location;lat;lon;timestamp;P1;durP1;ratioP1;P2;durP2;ratioP2
1682;SDS011;13252;53.596;10.060;2022-12-17T00:02:14;68.43;;;43.50;;
1682;SDS011;13252;53.596;10.060;2022-12-17T00:04:59;66.60;;;45.07;;
1682;SDS011;13252;53.596;10.060;2022-12-17T00:07:44;74.77;;;45.20;;
1682;SDS011;13252;53.596;10.060;2022-12-17T00:10:29;66.17;;;43.77;;
1682;SDS011;13252;53.596;10.060;2022-12-17T00:13:19;72.23;;;46.10;;
1682;SDS011;13252;53.596;10.060;2022-12-17T00:16:06;81.20;;;43.90;;
1682;SDS011;13252;53.596;10.060;2022-12-17T00:18:51;66.80;;;43.00;;
1682;SDS011;13252;53.596;10.060;2022-12-17T00:21:37;73.53;;;43.70;;
1682;SDS011;13252;53.596;10.060;2022-12-17T00:24:22;71.50;;;43.57;;
1682;SDS011;13252;53.596;10.060;2022-12-17T00:27:07;69.47;;;45.00;;
1682;SDS011;13252;53.596;10.060;2022-12-17T00:29:54;69.03;;;42.53;;
1682;SDS011;13252;53.596;10.060;2022-12-17T00:32:39;66.00;;;43.93;;
1682;SDS011;13252;53.596;10.060;2022-12-17T00:35:25;66.10;;;43.40;;
1682;SDS011;13252;53.596;10.060;2022-12-17T00:38:13;71.87;;;44.73;;
1682;SDS011;13252;53.596;10.060;2022-12-17T00:40:59;72.77;;;43.33;;
1682;SDS011;13252;53.596;10.060;2022-12-17T00:43:44;62.60;;;40.90;;
1682;SDS011;13252;53.596;10.060;2022-12-17T00:46:31;64.43;;;43.03;;
1682;SDS011;13252;53.596;10.060;2022-12-17T00:49:17;68.33;;;45.20;;
1682;SDS011;13252;53.596;10.060;2022-12-17T00:52:02;69.33;;;44.17;;
1682;SDS011;13252;53.596;10.060;2022-12-17T00:54:53;61.10;;;41.20;;
1682;SDS011;13252;53.596;10.060;2022-12-17T00:57:38;81.03;;;45.20;;
1682;SDS011;13252;53.596;10.060;2022-12-17T01:00:26;73.33;;;43.13;;
1682;SDS011;13252;53.596;10.060;2022-12-17T01:03:13;69.03;;;42.63;;
1682;SDS011;13252;53.596;10.060;2022-12-17T01:06:00;62.80;;;42.13;;
1682;SDS011;13252;53.596;10.060;2022-12-17T01:08:45;65.87;;;40.20;;
1682;SDS011;13252;53.596;10.060;2022-12-17T01:11:31;66.33;;;41.77;;
1682;SDS011;13252;53.596;10.060;2022-12-17T01:14:17;71.50;;;43.23;;
1682;SDS011;13252;53.596;10.060;2022-12-17T01:17:02;64.10;;;41.93;;
1682;SDS011;13252;53.596;10.060;2022-12-17T01:19:49;72.67;;;45.40;;
1682;SDS011;13252;53.596;10.060;2022-12-17T01:22:34;63.43;;;42.60;;
1682;SDS011;13252;53.596;10.060;2022-12-17T01:25:16;74.73;;;42.33;;
1682;SDS011;13252;53.596;10.060;2022-12-17T01:28:01;68.10;;;41.90;;
1682;SDS011;13252;53.596;10.060;2022-12-17T01:30:46;73.77;;;43.10;;
1682;SDS011;13252;53.596;10.060;2022-12-17T01:33:32;69.50;;;41.80;;
1682;SDS011;13252;53.596;10.060;2022-12-17T01:36:19;61.70;;;40.87;;
1682;SDS011;13252;53.596;10.060;2022-12-17T01:39:04;73.50;;;44.40;;
1682;SDS011;13252;53.596;10.060;2022-12-17T01:41:50;77.50;;;44.60;;
1682;SDS011;13252;53.596;10.060;2022-12-17T01:44:46;67.87;;;43.77;;
1682;SDS011;13252;53.596;10.060;2022-12-17T01:47:33;64.50;;;43.27;;
1682;SDS011;13252;53.596;10.060;2022-12-17T01:50:22;69.10;;;44.00;;
1682;SDS011;13252;53.596;10.060;2022-12-17T01:53:10;78.90;;;43.50;;
1682;SDS011;13252;53.596;10.060;2022-12-17T01:55:56;62.00;;;41.87;;
1682;SDS011;13252;53.596;10.060;2022-12-17T01:58:42;71.60;;;43.27;;
1682;SDS011;13252;53.596;10.060;2022-12-17T02:01:27;62.73;;;41.03;;
1682;SDS011;13252;53.596;10.060;2022-12-17T02:04:12;65.10;;;42.00;;
1682;SDS011;13252;53.596;10.060;2022-12-17T02:07:05;60.27;;;42.97;;
1682;SDS011;13252;53.596;10.060;2022-12-17T02:10:00;70.60;;;42.90;;
1682;SDS011;13252;53.596;10.060;2022-12-17T02:12:53;74.63;;;44.90;;
1682;SDS011;13252;53.596;10.060;2022-12-17T02:15:42;67.10;;;45.60;;
1682;SDS011;13252;53.596;10.060;2022-12-17T02:18:33;69.33;;;40.37;;
1682;SDS011;13252;53.596;10.060;2022-12-17T02:21:20;63.10;;;41.87;;
1682;SDS011;13252;53.596;10.060;2022-12-17T02:24:07;63.33;;;42.23;;
1682;SDS011;13252;53.596;10.060;2022-12-17T02:26:58;63.33;;;39.80;;
1682;SDS011;13252;53.596;10.060;2022-12-17T02:29:47;68.77;;;43.40;;
1682;SDS011;13252;53.596;10.060;2022-12-17T02:32:34;80.53;;;44.00;;
1682;SDS011;13252;53.596;10.060;2022-12-17T02:35:21;67.90;;;41.70;;
1682;SDS011;13252;53.596;10.060;2022-12-17T02:38:15;65.63;;;42.27;;
1682;SDS011;13252;53.596;10.060;2022-12-17T02:41:02;63.07;;;41.27;;
1682;SDS011;13252;53.596;10.060;2022-12-17T02:43:50;69.77;;;42.77;;
1682;SDS011;13252;53.596;10.060;2022-12-17T02:46:37;59.80;;;39.93;;
1682;SDS011;13252;53.596;10.060;2022-12-17T02:49:23;58.90;;;40.30;;
1682;SDS011;13252;53.596;10.060;2022-12-17T02:52:09;76.73;;;42.20;;
1682;SDS011;13252;53.596;10.060;2022-12-17T02:55:00;74.27;;;43.33;;
1682;SDS011;13252;53.596;10.060;2022-12-17T02:57:48;67.57;;;41.50;;
1682;SDS011;13252;53.596;10.060;2022-12-17T03:00:35;71.50;;;43.70;;
1682;SDS011;13252;53.596;10.060;2022-12-17T03:03:22;59.70;;;40.93;;
1682;SDS011;13252;53.596;10.060;2022-12-17T03:06:15;65.13;;;40.37;;
1682;SDS011;13252;53.596;10.060;2022-12-17T03:09:00;62.90;;;39.73;;
1682;SDS011;13252;53.596;10.060;2022-12-17T03:11:45;59.60;;;39.27;;
1682;SDS011;13252;53.596;10.060;2022-12-17T03:14:31;67.20;;;41.33;;
1682;SDS011;13252;53.596;10.060;2022-12-17T03:17:17;64.00;;;41.70;;
1682;SDS011;13252;53.596;10.060;2022-12-17T03:20:03;72.97;;;44.17;;
1682;SDS011;13252;53.596;10.060;2022-12-17T03:22:49;66.97;;;42.47;;
1682;SDS011;13252;53.596;10.060;2022-12-17T03:25:34;68.10;;;41.60;;
1682;SDS011;13252;53.596;10.060;2022-12-17T03:28:20;60.90;;;41.37;;
1682;SDS011;13252;53.596;10.060;2022-12-17T03:31:05;69.70;;;43.00;;
1682;SDS011;13252;53.596;10.060;2022-12-17T03:33:52;67.23;;;42.20;;
1682;SDS011;13252;53.596;10.060;2022-12-17T03:36:37;66.13;;;43.60;;
1682;SDS011;13252;53.596;10.060;2022-12-17T03:39:19;69.97;;;44.33;;
1682;SDS011;13252;53.596;10.060;2022-12-17T03:42:05;68.37;;;43.07;;
1682;SDS011;13252;53.596;10.060;2022-12-17T03:44:50;63.00;;;42.13;;
1682;SDS011;13252;53.596;10.060;2022-12-17T03:47:35;72.43;;;42.87;;
1682;SDS011;13252;53.596;10.060;2022-12-17T03:50:22;66.63;;;42.63;;
1682;SDS011;13252;53.596;10.060;2022-12-17T03:53:07;61.83;;;40.60;;
1682;SDS011;13252;53.596;10.060;2022-12-17T03:55:53;67.77;;;40.43;;
1682;SDS011;13252;53.596;10.060;2022-12-17T03:58:38;70.40;;;40.57;;
1682;SDS011;13252;53.596;10.060;2022-12-17T04:01:23;63.10;;;40.43;;
1682;SDS011;13252;53.596;10.060;2022-12-17T04:04:09;64.10;;;40.50;;
1682;SDS011;13252;53.596;10.060;2022-12-17T04:07:07;62.43;;;40.67;;
1682;SDS011;13252;53.596;10.060;2022-12-17T04:09:52;67.97;;;41.70;;
1682;SDS011;13252;53.596;10.060;2022-12-17T04:12:38;61.30;;;40.07;;
1682;SDS011;13252;53.596;10.060;2022-12-17T04:15:23;70.90;;;42.37;;
1682;SDS011;13252;53.596;10.060;2022-12-17T04:18:08;67.37;;;42.13;;
1682;SDS011;13252;53.596;10.060;2022-12-17T04:20:53;58.87;;;40.37;;
1682;SDS011;13252;53.596;10.060;2022-12-17T04:23:40;58.87;;;39.43;;
1682;SDS011;13252;53.596;10.060;2022-12-17T04:26:25;65.97;;;41.17;;
1682;SDS011;13252;53.596;10.060;2022-12-17T04:29:11;66.97;;;40.00;;
1682;SDS011;13252;53.596;10.060;2022-12-17T04:31:56;60.80;;;39.90;;
1682;SDS011;13252;53.596;10.060;2022-12-17T04:34:41;65.97;;;40.10;;
1682;SDS011;13252;53.596;10.060;2022-12-17T04:37:27;64.70;;;40.53;;
1682;SDS011;13252;53.596;10.060;2022-12-17T04:40:14;66.80;;;41.13;;
1682;SDS011;13252;53.596;10.060;2022-12-17T04:43:03;63.13;;;38.20;;
1682;SDS011;13252;53.596;10.060;2022-12-17T04:45:49;60.80;;;39.50;;
1682;SDS011;13252;53.596;10.060;2022-12-17T04:48:35;72.77;;;39.83;;
1682;SDS011;13252;53.596;10.060;2022-12-17T04:51:20;59.80;;;40.33;;
1682;SDS011;13252;53.596;10.060;2022-12-17T04:54:06;55.30;;;38.37;;
1682;SDS011;13252;53.596;10.060;2022-12-17T04:56:53;54.10;;;37.40;;
1682;SDS011;13252;53.596;10.060;2022-12-17T04:59:38;60.53;;;39.00;;
1682;SDS011;13252;53.596;10.060;2022-12-17T05:02:23;61.03;;;40.17;;
1682;SDS011;13252;53.596;10.060;2022-12-17T05:05:09;61.70;;;37.87;;
1682;SDS011;13252;53.596;10.060;2022-12-17T05:07:55;61.77;;;39.47;;
1682;SDS011;13252;53.596;10.060;2022-12-17T05:10:40;61.20;;;37.93;;
1682;SDS011;13252;53.596;10.060;2022-12-17T05:13:29;59.70;;;38.43;;
1682;SDS011;13252;53.596;10.060;2022-12-17T05:16:14;60.67;;;38.43;;
1682;SDS011;13252;53.596;10.060;2022-12-17T05:18:59;55.03;;;36.90;;
1682;SDS011;13252;53.596;10.060;2022-12-17T05:21:44;59.20;;;38.47;;
1682;SDS011;13252;53.596;10.060;2022-12-17T05:24:30;68.37;;;39.60;;
1682;SDS011;13252;53.596;10.060;2022-12-17T05:27:17;56.90;;;37.70;;
1682;SDS011;13252;53.596;10.060;2022-12-17T05:30:05;61.73;;;39.37;;
1682;SDS011;13252;53.596;10.060;2022-12-17T05:32:56;64.30;;;37.83;;
1682;SDS011;13252;53.596;10.060;2022-12-17T05:35:42;65.43;;;38.00;;
1682;SDS011;13252;53.596;10.060;2022-12-17T05:38:28;63.23;;;36.37;;
1682;SDS011;13252;53.596;10.060;2022-12-17T05:41:13;58.27;;;37.77;;
1682;SDS011;13252;53.596;10.060;2022-12-17T05:43:58;53.70;;;34.60;;
1682;SDS011;13252;53.596;10.060;2022-12-17T05:46:45;56.83;;;37.20;;
1682;SDS011;13252;53.596;10.060;2022-12-17T05:49:30;54.07;;;37.57;;
1682;SDS011;13252;53.596;10.060;2022-12-17T05:52:16;60.40;;;38.93;;
1682;SDS011;13252;53.596;10.060;2022-12-17T05:55:01;61.77;;;38.07;;
1682;SDS011;13252;53.596;10.060;2022-12-17T05:57:46;59.43;;;37.37;;
1682;SDS011;13252;53.596;10.060;2022-12-17T06:00:32;58.70;;;38.17;;
1682;SDS011;13252;53.596;10.060;2022-12-17T06:03:19;59.40;;;36.17;;
1682;SDS011;13252;53.596;10.060;2022-12-17T06:06:05;56.97;;;37.40;;
1682;SDS011;13252;53.596;10.060;2022-12-17T06:08:50;62.20;;;36.90;;
1682;SDS011;13252;53.596;10.060;2022-12-17T06:11:36;62.33;;;37.67;;
1682;SDS011;13252;53.596;10.060;2022-12-17T06:14:27;55.53;;;36.47;;
1682;SDS011;13252;53.596;10.060;2022-12-17T06:17:12;56.57;;;38.17;;
1682;SDS011;13252;53.596;10.060;2022-12-17T06:19:59;65.53;;;37.37;;
1682;SDS011;13252;53.596;10.060;2022-12-17T06:22:45;60.70;;;35.90;;
1682;SDS011;13252;53.596;10.060;2022-12-17T06:25:30;69.13;;;38.53;;
1682;SDS011;13252;53.596;10.060;2022-12-17T06:28:27;57.37;;;35.50;;
1682;SDS011;13252;53.596;10.060;2022-12-17T06:31:12;60.27;;;37.37;;
1682;SDS011;13252;53.596;10.060;2022-12-17T06:33:58;58.90;;;35.47;;
1682;SDS011;13252;53.596;10.060;2022-12-17T06:36:44;56.73;;;34.80;;
1682;SDS011;13252;53.596;10.060;2022-12-17T06:39:30;57.37;;;36.17;;
1682;SDS011;13252;53.596;10.060;2022-12-17T06:42:15;55.10;;;34.87;;
1682;SDS011;13252;53.596;10.060;2022-12-17T06:45:01;53.53;;;36.50;;
1682;SDS011;13252;53.596;10.060;2022-12-17T06:47:46;56.53;;;32.73;;
1682;SDS011;13252;53.596;10.060;2022-12-17T06:50:31;58.27;;;36.90;;
1682;SDS011;13252;53.596;10.060;2022-12-17T06:53:19;51.60;;;33.47;;
1682;SDS011;13252;53.596;10.060;2022-12-17T06:56:04;56.70;;;33.47;;
1682;SDS011;13252;53.596;10.060;2022-12-17T06:58:50;53.77;;;34.00;;
1682;SDS011;13252;53.596;10.060;2022-12-17T07:01:38;51.87;;;34.30;;
1682;SDS011;13252;53.596;10.060;2022-12-17T07:04:23;59.17;;;36.10;;
1682;SDS011;13252;53.596;10.060;2022-12-17T07:07:09;50.30;;;35.57;;
1682;SDS011;13252;53.596;10.060;2022-12-17T07:09:55;54.33;;;33.83;;
1682;SDS011;13252;53.596;10.060;2022-12-17T07:12:46;55.67;;;35.60;;
1682;SDS011;13252;53.596;10.060;2022-12-17T07:15:31;51.37;;;33.57;;
1682;SDS011;13252;53.596;10.060;2022-12-17T07:18:17;52.40;;;34.37;;
1682;SDS011;13252;53.596;10.060;2022-12-17T07:21:17;55.17;;;35.90;;
1682;SDS011;13252;53.596;10.060;2022-12-17T07:24:02;57.07;;;35.50;;
1682;SDS011;13252;53.596;10.060;2022-12-17T07:26:50;56.33;;;35.40;;
1682;SDS011;13252;53.596;10.060;2022-12-17T07:29:35;45.43;;;33.00;;
1682;SDS011;13252;53.596;10.060;2022-12-17T07:32:20;49.00;;;32.80;;
1682;SDS011;13252;53.596;10.060;2022-12-17T07:35:06;57.07;;;34.20;;
1682;SDS011;13252;53.596;10.060;2022-12-17T07:37:56;44.17;;;32.90;;
1682;SDS011;13252;53.596;10.060;2022-12-17T07:40:48;59.87;;;34.43;;
1682;SDS011;13252;53.596;10.060;2022-12-17T07:43:35;51.90;;;34.37;;
1682;SDS011;13252;53.596;10.060;2022-12-17T07:46:20;53.63;;;34.47;;
1682;SDS011;13252;53.596;10.060;2022-12-17T07:49:06;53.63;;;34.20;;
1682;SDS011;13252;53.596;10.060;2022-12-17T07:51:52;55.37;;;32.40;;
1682;SDS011;13252;53.596;10.060;2022-12-17T07:54:37;54.33;;;33.80;;
1682;SDS011;13252;53.596;10.060;2022-12-17T07:57:23;68.07;;;37.77;;
1682;SDS011;13252;53.596;10.060;2022-12-17T08:00:10;52.77;;;33.50;;
1682;SDS011;13252;53.596;10.060;2022-12-17T08:02:56;49.13;;;31.40;;
1682;SDS011;13252;53.596;10.060;2022-12-17T08:05:42;54.73;;;33.90;;
1682;SDS011;13252;53.596;10.060;2022-12-17T08:08:27;59.23;;;34.30;;
1682;SDS011;13252;53.596;10.060;2022-12-17T08:11:12;52.73;;;35.53;;
1682;SDS011;13252;53.596;10.060;2022-12-17T08:13:58;55.93;;;34.90;;
1682;SDS011;13252;53.596;10.060;2022-12-17T08:16:44;52.07;;;34.57;;
1682;SDS011;13252;53.596;10.060;2022-12-17T08:19:30;52.60;;;33.17;;
1682;SDS011;13252;53.596;10.060;2022-12-17T08:22:15;53.57;;;35.20;;
1682;SDS011;13252;53.596;10.060;2022-12-17T08:25:00;52.93;;;33.57;;
1682;SDS011;13252;53.596;10.060;2022-12-17T08:27:45;62.17;;;33.90;;
1682;SDS011;13252;53.596;10.060;2022-12-17T08:30:46;58.33;;;34.37;;
1682;SDS011;13252;53.596;10.060;2022-12-17T08:33:33;53.33;;;33.67;;
1682;SDS011;13252;53.596;10.060;2022-12-17T08:36:19;48.33;;;32.40;;
1682;SDS011;13252;53.596;10.060;2022-12-17T08:39:04;50.57;;;34.50;;
1682;SDS011;13252;53.596;10.060;2022-12-17T08:41:50;57.40;;;34.87;;
1682;SDS011;13252;53.596;10.060;2022-12-17T08:44:36;62.87;;;36.07;;
1682;SDS011;13252;53.596;10.060;2022-12-17T08:47:22;53.60;;;35.23;;
1682;SDS011;13252;53.596;10.060;2022-12-17T08:50:09;60.23;;;36.37;;
1682;SDS011;13252;53.596;10.060;2022-12-17T08:52:57;58.20;;;36.90;;
1682;SDS011;13252;53.596;10.060;2022-12-17T08:55:43;54.43;;;35.83;;
1682;SDS011;13252;53.596;10.060;2022-12-17T08:58:29;61.23;;;39.87;;
1682;SDS011;13252;53.596;10.060;2022-12-17T09:01:14;61.20;;;36.27;;
1682;SDS011;13252;53.596;10.060;2022-12-17T09:04:00;53.93;;;36.80;;
1682;SDS011;13252;53.596;10.060;2022-12-17T09:06:47;62.50;;;37.87;;
1682;SDS011;13252;53.596;10.060;2022-12-17T09:09:32;58.07;;;38.00;;
1682;SDS011;13252;53.596;10.060;2022-12-17T09:12:17;52.73;;;34.97;;
1682;SDS011;13252;53.596;10.060;2022-12-17T09:15:03;61.07;;;37.10;;
1682;SDS011;13252;53.596;10.060;2022-12-17T09:17:49;51.50;;;33.90;;
1682;SDS011;13252;53.596;10.060;2022-12-17T09:20:34;56.50;;;37.87;;
1682;SDS011;13252;53.596;10.060;2022-12-17T09:23:21;55.93;;;36.57;;
1682;SDS011;13252;53.596;10.060;2022-12-17T09:26:06;51.67;;;35.63;;
1682;SDS011;13252;53.596;10.060;2022-12-17T09:28:52;58.23;;;34.90;;
1682;SDS011;13252;53.596;10.060;2022-12-17T09:31:37;56.10;;;37.70;;
1682;SDS011;13252;53.596;10.060;2022-12-17T09:34:23;46.73;;;35.20;;
1682;SDS011;13252;53.596;10.060;2022-12-17T09:37:13;60.13;;;37.33;;
1682;SDS011;13252;53.596;10.060;2022-12-17T09:40:00;65.97;;;39.70;;
1682;SDS011;13252;53.596;10.060;2022-12-17T09:42:48;66.13;;;38.63;;
1682;SDS011;13252;53.596;10.060;2022-12-17T09:45:37;60.37;;;37.43;;
1682;SDS011;13252;53.596;10.060;2022-12-17T09:48:28;56.20;;;38.77;;
1682;SDS011;13252;53.596;10.060;2022-12-17T09:51:24;53.90;;;36.30;;
1682;SDS011;13252;53.596;10.060;2022-12-17T09:54:11;60.03;;;39.60;;
1682;SDS011;13252;53.596;10.060;2022-12-17T09:57:02;61.33;;;39.10;;
1682;SDS011;13252;53.596;10.060;2022-12-17T09:59:48;66.60;;;39.80;;
1682;SDS011;13252;53.596;10.060;2022-12-17T10:02:37;63.43;;;38.93;;
1682;SDS011;13252;53.596;10.060;2022-12-17T10:05:24;55.43;;;37.33;;
1682;SDS011;13252;53.596;10.060;2022-12-17T10:08:12;56.63;;;39.10;;
1682;SDS011;13252;53.596;10.060;2022-12-17T10:11:00;70.07;;;40.43;;
1682;SDS011;13252;53.596;10.060;2022-12-17T10:14:03;63.83;;;39.50;;
1682;SDS011;13252;53.596;10.060;2022-12-17T10:16:56;62.90;;;38.20;;
1682;SDS011;13252;53.596;10.060;2022-12-17T10:19:42;67.30;;;38.20;;
1682;SDS011;13252;53.596;10.060;2022-12-17T10:22:42;58.80;;;39.87;;
1682;SDS011;13252;53.596;10.060;2022-12-17T10:25:27;66.73;;;38.43;;
1682;SDS011;13252;53.596;10.060;2022-12-17T10:28:14;63.70;;;40.70;;
1682;SDS011;13252;53.596;10.060;2022-12-17T10:31:07;59.70;;;39.27;;
1682;SDS011;13252;53.596;10.060;2022-12-17T10:33:54;55.93;;;37.83;;
1682;SDS011;13252;53.596;10.060;2022-12-17T10:36:49;67.40;;;40.10;;
1682;SDS011;13252;53.596;10.060;2022-12-17T10:39:35;59.77;;;39.10;;
1682;SDS011;13252;53.596;10.060;2022-12-17T10:42:22;72.20;;;41.27;;
1682;SDS011;13252;53.596;10.060;2022-12-17T10:45:22;58.43;;;37.83;;
1682;SDS011;13252;53.596;10.060;2022-12-17T10:48:17;59.77;;;36.80;;
1682;SDS011;13252;53.596;10.060;2022-12-17T10:51:04;57.43;;;36.53;;
1682;SDS011;13252;53.596;10.060;2022-12-17T10:53:58;58.90;;;36.20;;
1682;SDS011;13252;53.596;10.060;2022-12-17T10:56:51;56.53;;;35.90;;
1682;SDS011;13252;53.596;10.060;2022-12-17T10:59:36;51.37;;;37.33;;
1682;SDS011;13252;53.596;10.060;2022-12-17T11:02:24;51.30;;;34.83;;
1682;SDS011;13252;53.596;10.060;2022-12-17T11:05:14;48.50;;;33.30;;
1682;SDS011;13252;53.596;10.060;2022-12-17T11:08:00;45.03;;;34.63;;
1682;SDS011;13252;53.596;10.060;2022-12-17T11:10:46;46.07;;;30.67;;
1682;SDS011;13252;53.596;10.060;2022-12-17T11:13:32;58.80;;;32.33;;
1682;SDS011;13252;53.596;10.060;2022-12-17T11:16:20;47.50;;;31.70;;
1682;SDS011;13252;53.596;10.060;2022-12-17T11:21:48;49.03;;;34.53;;
1682;SDS011;13252;53.596;10.060;2022-12-17T11:24:37;44.77;;;34.13;;
1682;SDS011;13252;53.596;10.060;2022-12-17T11:27:24;43.73;;;33.47;;
1682;SDS011;13252;53.596;10.060;2022-12-17T11:30:12;48.17;;;34.40;;
1682;SDS011;13252;53.596;10.060;2022-12-17T11:33:02;53.00;;;35.00;;
1682;SDS011;13252;53.596;10.060;2022-12-17T11:35:54;54.10;;;33.43;;
1682;SDS011;13252;53.596;10.060;2022-12-17T11:38:45;43.70;;;31.53;;
1682;SDS011;13252;53.596;10.060;2022-12-17T11:41:34;44.87;;;30.40;;
1682;SDS011;13252;53.596;10.060;2022-12-17T11:44:32;46.00;;;30.40;;
1682;SDS011;13252;53.596;10.060;2022-12-17T11:47:25;45.80;;;32.60;;
1682;SDS011;13252;53.596;10.060;2022-12-17T11:50:25;40.90;;;31.10;;
1682;SDS011;13252;53.596;10.060;2022-12-17T11:53:17;53.10;;;30.97;;
1682;SDS011;13252;53.596;10.060;2022-12-17T11:56:11;44.77;;;32.93;;
1682;SDS011;13252;53.596;10.060;2022-12-17T11:59:02;44.87;;;29.97;;
1682;SDS011;13252;53.596;10.060;2022-12-17T12:01:52;40.30;;;31.27;;
1682;SDS011;13252;53.596;10.060;2022-12-17T12:04:50;42.80;;;28.53;;
1682;SDS011;13252;53.596;10.060;2022-12-17T12:08:01;40.03;;;27.37;;
1682;SDS011;13252;53.596;10.060;2022-12-17T12:10:54;42.23;;;28.37;;
1682;SDS011;13252;53.596;10.060;2022-12-17T12:13:45;43.30;;;30.70;;
1682;SDS011;13252;53.596;10.060;2022-12-17T12:16:34;41.70;;;32.17;;
1682;SDS011;13252;53.596;10.060;2022-12-17T12:19:25;40.03;;;29.60;;
1682;SDS011;13252;53.596;10.060;2022-12-17T12:22:15;41.50;;;30.97;;
1682;SDS011;13252;53.596;10.060;2022-12-17T12:25:07;49.63;;;30.50;;
1682;SDS011;13252;53.596;10.060;2022-12-17T12:28:03;43.63;;;32.17;;
1682;SDS011;13252;53.596;10.060;2022-12-17T12:30:56;54.43;;;28.83;;
1682;SDS011;13252;53.596;10.060;2022-12-17T12:33:47;47.73;;;31.70;;
1682;SDS011;13252;53.596;10.060;2022-12-17T12:36:35;35.57;;;28.17;;
1682;SDS011;13252;53.596;10.060;2022-12-17T12:39:23;36.87;;;28.40;;
1682;SDS011;13252;53.596;10.060;2022-12-17T12:42:12;43.70;;;30.53;;
1682;SDS011;13252;53.596;10.060;2022-12-17T12:45:02;39.27;;;29.03;;
1682;SDS011;13252;53.596;10.060;2022-12-17T12:47:52;38.40;;;28.50;;
1682;SDS011;13252;53.596;10.060;2022-12-17T12:50:43;34.57;;;26.60;;
1682;SDS011;13252;53.596;10.060;2022-12-17T12:53:30;41.97;;;28.57;;
1682;SDS011;13252;53.596;10.060;2022-12-17T12:56:25;32.03;;;24.80;;
1682;SDS011;13252;53.596;10.060;2022-12-17T12:59:15;36.37;;;25.50;;
1682;SDS011;13252;53.596;10.060;2022-12-17T13:02:25;31.27;;;24.83;;
1682;SDS011;13252;53.596;10.060;2022-12-17T13:05:21;31.57;;;23.43;;
1682;SDS011;13252;53.596;10.060;2022-12-17T13:08:00;27.20;;;22.63;;
1682;SDS011;13252;53.596;10.060;2022-12-17T13:10:32;33.33;;;22.63;;
1682;SDS011;13252;53.596;10.060;2022-12-17T13:13:04;29.77;;;22.40;;
1682;SDS011;13252;53.596;10.060;2022-12-17T13:15:39;29.53;;;21.43;;
1682;SDS011;13252;53.596;10.060;2022-12-17T13:18:14;25.83;;;19.00;;
1682;SDS011;13252;53.596;10.060;2022-12-17T13:20:55;32.13;;;19.80;;
1682;SDS011;13252;53.596;10.060;2022-12-17T13:23:29;27.20;;;21.20;;
1682;SDS011;13252;53.596;10.060;2022-12-17T13:28:56;28.10;;;18.40;;
1682;SDS011;13252;53.596;10.060;2022-12-17T13:31:26;28.43;;;19.60;;
1682;SDS011;13252;53.596;10.060;2022-12-17T13:33:57;24.80;;;18.27;;
1682;SDS011;13252;53.596;10.060;2022-12-17T13:36:33;34.53;;;17.93;;
1682;SDS011;13252;53.596;10.060;2022-12-17T13:39:05;22.80;;;16.80;;
1682;SDS011;13252;53.596;10.060;2022-12-17T13:41:36;22.23;;;17.20;;
1682;SDS011;13252;53.596;10.060;2022-12-17T13:44:16;25.03;;;15.93;;
1682;SDS011;13252;53.596;10.060;2022-12-17T13:46:45;27.73;;;16.53;;
1682;SDS011;13252;53.596;10.060;2022-12-17T13:49:15;25.40;;;17.50;;
1682;SDS011;13252;53.596;10.060;2022-12-17T13:51:46;22.07;;;15.70;;
1682;SDS011;13252;53.596;10.060;2022-12-17T13:54:14;21.07;;;15.63;;
1682;SDS011;13252;53.596;10.060;2022-12-17T13:56:43;26.70;;;15.70;;
1682;SDS011;13252;53.596;10.060;2022-12-17T13:59:15;20.33;;;15.17;;
1682;SDS011;13252;53.596;10.060;2022-12-17T14:01:46;20.83;;;14.97;;
1682;SDS011;13252;53.596;10.060;2022-12-17T14:04:18;20.10;;;14.80;;
1682;SDS011;13252;53.596;10.060;2022-12-17T14:06:49;19.73;;;15.43;;
1682;SDS011;13252;53.596;10.060;2022-12-17T14:09:18;19.07;;;13.53;;
1682;SDS011;13252;53.596;10.060;2022-12-17T14:11:47;25.50;;;15.40;;
1682;SDS011;13252;53.596;10.060;2022-12-17T14:14:34;23.60;;;14.87;;
1682;SDS011;13252;53.596;10.060;2022-12-17T14:17:06;27.50;;;15.43;;
1682;SDS011;13252;53.596;10.060;2022-12-17T14:19:42;22.10;;;15.43;;
1682;SDS011;13252;53.596;10.060;2022-12-17T14:22:12;21.30;;;15.60;;
1682;SDS011;13252;53.596;10.060;2022-12-17T14:24:43;21.30;;;15.17;;
1682;SDS011;13252;53.596;10.060;2022-12-17T14:27:21;31.03;;;16.33;;
1682;SDS011;13252;53.596;10.060;2022-12-17T14:29:50;19.20;;;14.47;;
1682;SDS011;13252;53.596;10.060;2022-12-17T14:32:21;21.23;;;15.43;;
1682;SDS011;13252;53.596;10.060;2022-12-17T14:34:50;21.63;;;14.40;;
1682;SDS011;13252;53.596;10.060;2022-12-17T14:37:27;25.10;;;15.03;;
1682;SDS011;13252;53.596;10.060;2022-12-17T14:39:57;23.33;;;15.53;;
1682;SDS011;13252;53.596;10.060;2022-12-17T14:42:27;26.10;;;15.13;;
1682;SDS011;13252;53.596;10.060;2022-12-17T14:44:59;24.50;;;17.10;;
1682;SDS011;13252;53.596;10.060;2022-12-17T14:47:28;22.83;;;16.63;;
1682;SDS011;13252;53.596;10.060;2022-12-17T14:49:58;26.07;;;17.03;;
1682;SDS011;13252;53.596;10.060;2022-12-17T14:52:36;23.43;;;17.00;;
1682;SDS011;13252;53.596;10.060;2022-12-17T14:55:24;26.67;;;16.00;;
1682;SDS011;13252;53.596;10.060;2022-12-17T14:58:07;21.97;;;15.20;;
1682;SDS011;13252;53.596;10.060;2022-12-17T15:00:46;26.67;;;17.07;;
1682;SDS011;13252;53.596;10.060;2022-12-17T15:03:17;21.40;;;15.33;;
1682;SDS011;13252;53.596;10.060;2022-12-17T15:05:51;23.60;;;16.07;;
1682;SDS011;13252;53.596;10.060;2022-12-17T15:08:21;30.30;;;16.37;;
1682;SDS011;13252;53.596;10.060;2022-12-17T15:10:49;23.30;;;15.97;;
1682;SDS011;13252;53.596;10.060;2022-12-17T15:13:16;28.13;;;16.30;;
1682;SDS011;13252;53.596;10.060;2022-12-17T15:15:44;25.03;;;14.43;;
1682;SDS011;13252;53.596;10.060;2022-12-17T15:18:12;24.43;;;15.00;;
1682;SDS011;13252;53.596;10.060;2022-12-17T15:20:39;23.47;;;15.60;;
1682;SDS011;13252;53.596;10.060;2022-12-17T15:23:09;24.10;;;14.57;;
1682;SDS011;13252;53.596;10.060;2022-12-17T15:25:42;21.30;;;14.50;;
1682;SDS011;13252;53.596;10.060;2022-12-17T15:28:12;23.87;;;14.60;;
1682;SDS011;13252;53.596;10.060;2022-12-17T15:30:42;19.37;;;14.17;;
1682;SDS011;13252;53.596;10.060;2022-12-17T15:33:09;24.70;;;15.07;;
1682;SDS011;13252;53.596;10.060;2022-12-17T15:35:37;22.10;;;14.97;;
1682;SDS011;13252;53.596;10.060;2022-12-17T15:38:06;19.77;;;13.60;;
1682;SDS011;13252;53.596;10.060;2022-12-17T15:40:35;24.57;;;14.50;;
1682;SDS011;13252;53.596;10.060;2022-12-17T15:43:04;23.53;;;15.40;;
1682;SDS011;13252;53.596;10.060;2022-12-17T15:45:37;26.60;;;15.73;;
1682;SDS011;13252;53.596;10.060;2022-12-17T15:48:06;24.90;;;15.60;;
1682;SDS011;13252;53.596;10.060;2022-12-17T15:50:34;22.03;;;14.60;;
1682;SDS011;13252;53.596;10.060;2022-12-17T15:53:02;26.53;;;14.63;;
1682;SDS011;13252;53.596;10.060;2022-12-17T15:55:30;21.93;;;15.23;;
1682;SDS011;13252;53.596;10.060;2022-12-17T15:57:58;24.43;;;14.00;;
1682;SDS011;13252;53.596;10.060;2022-12-17T16:00:27;26.53;;;14.47;;
1682;SDS011;13252;53.596;10.060;2022-12-17T16:02:55;22.97;;;14.50;;
1682;SDS011;13252;53.596;10.060;2022-12-17T16:05:23;28.87;;;15.40;;
1682;SDS011;13252;53.596;10.060;2022-12-17T16:07:51;21.80;;;14.87;;